Time;durP1;ratioP1;P1;durP2;ratioP2;P2;SDS_P1;SDS_P2;PMS_P1;PMS_P2;Temp;Humidity;BMP_temperature;BMP_pressure;BME280_temperature;BME280_humidity;BME280_pressure;Samples;Min_cycle;Max_cycle;Signal;HPM_P1;HPM_P2
2023/07/18 00:01:48;;;;;;;18.58;4.03;;;;;;;;;;6176095;22;20044;-90
2023/07/18 00:04:22;;;;;;;14.75;3.65;;;;;;;;;;6192361;23;20036;-89
2023/07/18 00:06:49;;;;;;;9.65;3.55;;;;;;;;;;6217100;23;20005;-88
2023/07/18 00:09:21;;;;;;;8.10;3.65;;;;;;;;;;6167650;23;20039;-89
2023/07/18 00:11:48;;;;;;;11.75;3.65;;;;;;;;;;6191112;23;20013;-89
2023/07/18 00:14:17;;;;;;;13.25;3.75;;;;;;;;;;6192252;23;20475;-88
2023/07/18 00:16:46;;;;;;;12.23;3.97;;;;;;;;;;6192094;23;20043;-89
2023/07/18 00:19:12;;;;;;;10.15;3.60;;;;;;;;;;6190866;23;20056;-88
2023/07/18 00:21:39;;;;;;;12.85;3.20;;;;;;;;;;6167079;23;20039;-89
2023/07/18 00:24:06;;;;;;;13.52;3.88;;;;;;;;;;6217043;23;20423;-88
2023/07/18 00:26:33;;;;;;;8.52;3.60;;;;;;;;;;6166901;23;20309;-87
2023/07/18 00:28:59;;;;;;;12.15;3.92;;;;;;;;;;6167478;23;20017;-87
2023/07/18 00:31:27;;;;;;;18.45;4.50;;;;;;;;;;6218308;23;20003;-88
2023/07/18 00:33:53;;;;;;;18.45;5.25;;;;;;;;;;6167182;23;20036;-90
2023/07/18 00:36:20;;;;;;;15.75;4.68;;;;;;;;;;6188925;23;20070;-88
2023/07/18 00:38:46;;;;;;;16.15;4.20;;;;;;;;;;6165839;23;20316;-88
2023/07/18 00:41:12;;;;;;;18.30;4.45;;;;;;;;;;6167102;23;20012;-88
2023/07/18 00:43:38;;;;;;;14.85;4.35;;;;;;;;;;6166157;23;20017;-88
2023/07/18 00:46:05;;;;;;;22.00;4.57;;;;;;;;;;6189515;23;20462;-89
2023/07/18 00:48:34;;;;;;;17.15;4.15;;;;;;;;;;6166361;23;20008;-88
2023/07/18 00:51:01;;;;;;;15.25;4.00;;;;;;;;;;6190457;23;20004;-89
2023/07/18 00:53:28;;;;;;;12.88;3.83;;;;;;;;;;6190803;23;20004;-88
2023/07/18 00:55:55;;;;;;;12.32;3.65;;;;;;;;;;6191368;23;20016;-88
2023/07/18 00:58:22;;;;;;;15.05;3.65;;;;;;;;;;6166702;23;20008;-89
2023/07/18 01:00:51;;;;;;;15.23;3.70;;;;;;;;;;6190371;23;20008;-88
2023/07/18 01:03:17;;;;;;;15.00;3.55;;;;;;;;;;6168748;22;20036;-89
2023/07/18 01:05:43;;;;;;;14.05;3.67;;;;;;;;;;6190377;23;20012;-88
2023/07/18 01:08:19;;;;;;;9.88;3.60;;;;;;;;;;6165772;23;20223;-89
2023/07/18 01:10:45;;;;;;;16.15;3.80;;;;;;;;;;6166762;23;20004;-86
2023/07/18 01:13:12;;;;;;;18.45;4.30;;;;;;;;;;6166131;23;20331;-89
2023/07/18 01:15:38;;;;;;;12.98;4.13;;;;;;;;;;6166319;23;20012;-90
2023/07/18 01:18:08;;;;;;;14.57;4.50;;;;;;;;;;6166321;23;20550;-89
2023/07/18 01:20:36;;;;;;;17.70;4.07;;;;;;;;;;6218192;23;20000;-88
2023/07/18 01:23:21;;;;;;;18.13;4.20;;;;;;;;;;6167830;23;20005;-89
2023/07/18 01:25:48;;;;;;;24.27;4.78;;;;;;;;;;6190738;23;20066;-89
2023/07/18 01:28:14;;;;;;;18.10;4.63;;;;;;;;;;6192282;23;20001;-89
2023/07/18 01:30:40;;;;;;;15.27;4.40;;;;;;;;;;6192093;23;20131;-88
2023/07/18 01:33:13;;;;;;;11.15;3.70;;;;;;;;;;6168997;23;20009;-90
2023/07/18 01:35:59;;;;;;;15.05;4.22;;;;;;;;;;6194521;23;20013;-88
2023/07/18 01:38:32;;;;;;;19.83;4.45;;;;;;;;;;6192057;23;20012;-88
2023/07/18 01:41:02;;;;;;;13.82;4.50;;;;;;;;;;6191237;23;20019;-88
2023/07/18 01:43:31;;;;;;;7.30;3.58;;;;;;;;;;6192612;23;20062;-89
2023/07/18 01:45:59;;;;;;;18.98;4.45;;;;;;;;;;6167075;23;20023;-88
2023/07/18 01:48:26;;;;;;;20.85;4.80;;;;;;;;;;6189715;23;20008;-87
2023/07/18 01:50:53;;;;;;;16.35;4.47;;;;;;;;;;6165996;23;20094;-87
2023/07/18 01:53:26;;;;;;;15.35;5.05;;;;;;;;;;6189748;23;20493;-88
2023/07/18 01:55:52;;;;;;;28.23;4.28;;;;;;;;;;6164072;23;20017;-89
2023/07/18 01:58:18;;;;;;;18.30;4.03;;;;;;;;;;6162553;23;20012;-88
2023/07/18 02:00:44;;;;;;;13.05;4.90;;;;;;;;;;6166292;23;20019;-87
2023/07/18 02:03:12;;;;;;;15.25;4.60;;;;;;;;;;6176089;22;20048;-88
2023/07/18 02:05:47;;;;;;;14.38;4.55;;;;;;;;;;6192832;23;20013;-89
2023/07/18 02:08:18;;;;;;;16.33;3.88;;;;;;;;;;6191942;23;20015;-85
2023/07/18 02:10:44;;;;;;;18.50;4.22;;;;;;;;;;6188195;23;20013;-85
2023/07/18 02:13:14;;;;;;;18.52;4.65;;;;;;;;;;6163021;23;20058;-84
2023/07/18 02:15:49;;;;;;;23.33;5.55;;;;;;;;;;6189548;23;20009;-84
2023/07/18 02:18:15;;;;;;;18.27;4.50;;;;;;;;;;6192600;23;20759;-85
2023/07/18 02:20:42;;;;;;;21.63;4.35;;;;;;;;;;6164773;23;20012;-88
2023/07/18 02:23:08;;;;;;;15.45;4.45;;;;;;;;;;6165311;23;20012;-89
2023/07/18 02:25:34;;;;;;;24.10;5.03;;;;;;;;;;6187776;23;20025;-88
2023/07/18 02:30:50;;;;;;;;;;;;;;;;;;6174954;23;20014;-89
2023/07/18 02:33:16;;;;;;;17.65;4.85;;;;;;;;;;6189592;23;19908;-89
2023/07/18 02:35:47;;;;;;;17.33;4.47;;;;;;;;;;6164478;23;20016;-88
2023/07/18 02:38:14;;;;;;;26.98;4.93;;;;;;;;;;6189451;23;20008;-89
2023/07/18 02:40:42;;;;;;;16.58;4.22;;;;;;;;;;6165424;23;20028;-89
2023/07/18 02:43:08;;;;;;;18.38;4.93;;;;;;;;;;6191815;23;20427;-88
2023/07/18 02:45:34;;;;;;;14.85;4.68;;;;;;;;;;6167566;23;20016;-89
2023/07/18 02:48:01;;;;;;;18.25;5.07;;;;;;;;;;6167086;23;20015;-88
2023/07/18 02:50:27;;;;;;;26.40;4.47;;;;;;;;;;6165273;23;20004;-88
2023/07/18 02:52:57;;;;;;;19.00;4.47;;;;;;;;;;6216608;23;20005;-89
2023/07/18 02:55:32;;;;;;;20.85;5.30;;;;;;;;;;6165286;23;20099;-88
2023/07/18 02:58:12;;;;;;;19.85;4.93;;;;;;;;;;6166193;23;20012;-88
2023/07/18 03:00:39;;;;;;;21.73;4.78;;;;;;;;;;6216542;23;20031;-89
2023/07/18 03:03:07;;;;;;;15.95;4.45;;;;;;;;;;6171653;22;20044;-89
2023/07/18 03:05:33;;;;;;;21.95;5.40;;;;;;;;;;6191551;23;20004;-87
2023/07/18 03:08:00;;;;;;;26.55;4.88;;;;;;;;;;6167403;23;20442;-88
2023/07/18 03:10:26;;;;;;;23.13;6.03;;;;;;;;;;6167456;23;20028;-88
2023/07/18 03:12:52;;;;;;;15.23;5.05;;;;;;;;;;6168877;23;20012;-88
2023/07/18 03:15:20;;;;;;;21.90;5.22;;;;;;;;;;6168435;23;20004;-89
2023/07/18 03:20:36;;;;;;;24.45;4.90;;;;;;;;;;6154449;23;20343;-89
2023/07/18 03:23:02;;;;;;;25.77;4.43;;;;;;;;;;6218197;23;20035;-89
2023/07/18 03:25:28;;;;;;;11.02;4.85;;;;;;;;;;6190359;23;20094;-88
2023/07/18 03:27:54;;;;;;;17.15;4.78;;;;;;;;;;6188243;23;20012;-88
2023/07/18 03:30:21;;;;;;;17.38;4.47;;;;;;;;;;6214511;23;20004;-88
2023/07/18 03:32:51;;;;;;;20.60;5.47;;;;;;;;;;6164353;23;20017;-89
2023/07/18 03:35:31;;;;;;;16.10;4.65;;;;;;;;;;6188005;23;20016;-89
2023/07/18 03:37:57;;;;;;;24.27;5.80;;;;;;;;;;6187796;23;20009;-89
2023/07/18 03:40:23;;;;;;;14.60;4.53;;;;;;;;;;6164506;23;20012;-88
2023/07/18 03:42:50;;;;;;;31.73;6.35;;;;;;;;;;6188697;23;20063;-87
2023/07/18 03:45:17;;;;;;;21.83;4.88;;;;;;;;;;6163676;23;20016;-88
2023/07/18 03:47:44;;;;;;;26.75;4.60;;;;;;;;;;6184972;23;20016;-88
2023/07/18 03:50:11;;;;;;;26.13;5.38;;;;;;;;;;6162639;23;20008;-86
2023/07/18 03:52:38;;;;;;;22.45;5.63;;;;;;;;;;6161762;23;20095;-87
2023/07/18 03:55:05;;;;;;;19.88;4.60;;;;;;;;;;6186957;23;20013;-87
2023/07/18 03:57:35;;;;;;;23.73;5.78;;;;;;;;;;6164166;23;20454;-88
2023/07/18 04:00:14;;;;;;;22.52;5.22;;;;;;;;;;6140626;23;20032;-88
2023/07/18 04:02:47;;;;;;;19.67;4.90;;;;;;;;;;6191041;22;20023;-87
2023/07/18 04:05:21;;;;;;;18.15;5.68;;;;;;;;;;6167636;23;20016;-88
2023/07/18 04:07:47;;;;;;;20.48;5.30;;;;;;;;;;6166974;23;20198;-88
2023/07/18 04:10:18;;;;;;;13.95;5.35;;;;;;;;;;6193091;23;20015;-87
2023/07/18 04:12:47;;;;;;;18.10;4.65;;;;;;;;;;6168611;23;20076;-87
2023/07/18 04:15:16;;;;;;;19.55;5.47;;;;;;;;;;6192237;23;20055;-88
2023/07/18 04:17:42;;;;;;;27.23;5.13;;;;;;;;;;6167321;23;20021;-87
2023/07/18 04:20:10;;;;;;;23.50;4.70;;;;;;;;;;6192939;23;20016;-87
2023/07/18 04:22:37;;;;;;;18.95;5.47;;;;;;;;;;6218144;23;20011;-86
2023/07/18 04:25:03;;;;;;;17.75;5.00;;;;;;;;;;6166564;23;20012;-88
2023/07/18 04:27:29;;;;;;;24.42;4.95;;;;;;;;;;6192214;23;20066;-87
2023/07/18 04:29:56;;;;;;;20.40;5.88;;;;;;;;;;6167222;23;20008;-88
2023/07/18 04:32:22;;;;;;;22.58;5.50;;;;;;;;;;6191828;23;20014;-88
2023/07/18 04:34:48;;;;;;;17.10;4.60;;;;;;;;;;6167360;23;20008;-88
2023/07/18 04:37:15;;;;;;;17.42;5.53;;;;;;;;;;6169289;23;20020;-85
2023/07/18 04:39:45;;;;;;;28.27;5.15;;;;;;;;;;6217457;23;20000;-84
2023/07/18 04:42:12;;;;;;;19.42;5.20;;;;;;;;;;6167973;23;20009;-85
2023/07/18 04:44:41;;;;;;;22.10;4.78;;;;;;;;;;6219437;23;19996;-86
2023/07/18 04:47:08;;;;;;;26.67;5.45;;;;;;;;;;6194392;23;20255;-85
2023/07/18 04:49:37;;;;;;;16.33;5.00;;;;;;;;;;6169476;23;20013;-86
2023/07/18 04:52:05;;;;;;;16.77;4.35;;;;;;;;;;6196932;23;20032;-86
2023/07/18 04:54:37;;;;;;;23.00;5.07;;;;;;;;;;6195221;23;20699;-85
2023/07/18 04:57:03;;;;;;;23.75;4.68;;;;;;;;;;6172106;23;20019;-87
2023/07/18 04:59:34;;;;;;;20.33;4.30;;;;;;;;;;6198153;23;20325;-87
2023/07/18 05:02:00;;;;;;;19.80;4.30;;;;;;;;;;6198634;23;20034;-87
2023/07/18 05:04:27;;;;;;;29.75;4.57;;;;;;;;;;6199205;22;20048;-86
2023/07/18 05:06:54;;;;;;;18.35;4.72;;;;;;;;;;6194885;23;20064;-86
2023/07/18 05:09:20;;;;;;;11.40;4.18;;;;;;;;;;6170512;23;20565;-86
2023/07/18 05:11:47;;;;;;;18.85;4.50;;;;;;;;;;6170418;23;20001;-87
2023/07/18 05:14:13;;;;;;;16.90;4.43;;;;;;;;;;6164079;23;20063;-86
2023/07/18 05:16:39;;;;;;;18.00;4.97;;;;;;;;;;6164673;23;20508;-86
2023/07/18 05:19:39;;;;;;;19.73;6.07;;;;;;;;;;6171139;23;20008;-88
2023/07/18 05:22:16;;;;;;;18.08;5.32;;;;;;;;;;6206194;23;20015;-86
2023/07/18 05:25:01;;;;;;;24.05;8.05;;;;;;;;;;6231622;23;20088;-86
2023/07/18 05:27:30;;;;;;;24.73;4.70;;;;;;;;;;6199510;23;20067;-87
2023/07/18 05:30:04;;;;;;;14.52;4.00;;;;;;;;;;6198651;23;20495;-87
2023/07/18 05:32:31;;;;;;;14.32;5.68;;;;;;;;;;6200603;23;20004;-86
2023/07/18 05:35:02;;;;;;;20.38;4.72;;;;;;;;;;6185272;23;20005;-86
2023/07/18 05:37:30;;;;;;;19.42;4.90;;;;;;;;;;6189324;23;20465;-87
2023/07/18 05:39:59;;;;;;;31.67;5.05;;;;;;;;;;6163360;23;20399;-86
2023/07/18 05:42:25;;;;;;;13.98;4.75;;;;;;;;;;6215301;23;20442;-86
2023/07/18 05:44:58;;;;;;;16.33;5.70;;;;;;;;;;6193453;23;20502;-86
2023/07/18 05:47:26;;;;;;;15.98;4.45;;;;;;;;;;6227267;23;20386;-86
2023/07/18 05:50:00;;;;;;;35.30;5.07;;;;;;;;;;6196558;23;20446;-86
2023/07/18 05:52:38;;;;;;;14.43;5.13;;;;;;;;;;6225165;23;20004;-87
2023/07/18 05:55:13;;;;;;;15.93;4.53;;;;;;;;;;6226252;23;20086;-87
2023/07/18 05:57:47;;;;;;;11.02;5.15;;;;;;;;;;6178429;23;20009;-87
2023/07/18 06:00:34;;;;;;;20.10;4.50;;;;;;;;;;6199940;23;20019;-87
2023/07/18 06:03:12;;;;;;;13.23;5.13;;;;;;;;;;6216408;22;20457;-87
2023/07/18 06:05:38;;;;;;;19.77;4.93;;;;;;;;;;6205401;23;20087;-87
2023/07/18 06:08:08;;;;;;;20.00;5.53;;;;;;;;;;6233468;23;20352;-87
2023/07/18 06:10:42;;;;;;;15.68;5.25;;;;;;;;;;6232712;23;20366;-87
2023/07/18 06:13:13;;;;;;;19.20;4.68;;;;;;;;;;6258317;23;20011;-86
2023/07/18 06:15:47;;;;;;;24.02;5.45;;;;;;;;;;6206993;23;20063;-87
2023/07/18 06:18:20;;;;;;;17.67;4.47;;;;;;;;;;6234733;23;20008;-86
2023/07/18 06:20:46;;;;;;;18.00;5.00;;;;;;;;;;6233833;23;20008;-87
2023/07/18 06:23:19;;;;;;;17.52;4.97;;;;;;;;;;6199568;23;20101;-86
2023/07/18 06:25:45;;;;;;;16.80;6.07;;;;;;;;;;6197883;23;20032;-86
2023/07/18 06:28:11;;;;;;;18.83;5.00;;;;;;;;;;6223181;23;19996;-87
2023/07/18 06:30:45;;;;;;;26.52;5.38;;;;;;;;;;6224964;23;20289;-86
2023/07/18 06:33:13;;;;;;;18.45;4.75;;;;;;;;;;6199683;23;20034;-87
2023/07/18 06:35:40;;;;;;;19.40;4.68;;;;;;;;;;6226728;23;20011;-86
2023/07/18 06:38:16;;;;;;;16.90;5.05;;;;;;;;;;6225321;23;20019;-87
2023/07/18 06:40:46;;;;;;;12.30;4.25;;;;;;;;;;6226932;23;20091;-86
2023/07/18 06:43:14;;;;;;;18.98;5.07;;;;;;;;;;6224374;23;20004;-87
2023/07/18 06:45:42;;;;;;;19.95;5.10;;;;;;;;;;6202728;23;20458;-86
2023/07/18 06:48:11;;;;;;;19.05;5.13;;;;;;;;;;6201495;23;20019;-87
2023/07/18 06:50:38;;;;;;;19.55;4.97;;;;;;;;;;6226571;23;20655;-86
2023/07/18 06:53:04;;;;;;;13.07;5.20;;;;;;;;;;6199356;23;20013;-87
2023/07/18 06:55:31;;;;;;;23.65;5.30;;;;;;;;;;6224126;23;20452;-87
2023/07/18 06:57:57;;;;;;;26.60;5.82;;;;;;;;;;6226656;23;20018;-86
2023/07/18 07:00:24;;;;;;;12.05;3.60;;;;;;;;;;6202791;23;20008;-86
2023/07/18 07:02:50;;;;;;;19.00;4.88;;;;;;;;;;6224624;23;20084;-87
2023/07/18 07:05:19;;;;;;;10.85;4.05;;;;;;;;;;6200662;22;20090;-87
2023/07/18 07:07:49;;;;;;;19.85;5.72;;;;;;;;;;6202311;23;20019;-87
2023/07/18 07:10:16;;;;;;;10.98;4.75;;;;;;;;;;6225549;23;20015;-87
2023/07/18 07:12:42;;;;;;;19.13;6.13;;;;;;;;;;6198945;23;20085;-87
2023/07/18 07:15:13;;;;;;;17.02;4.90;;;;;;;;;;6199618;23;20024;-86
2023/07/18 07:17:39;;;;;;;13.32;4.47;;;;;;;;;;6223556;23;20015;-86
2023/07/18 07:20:12;;;;;;;15.45;4.95;;;;;;;;;;6223646;23;20158;-87
2023/07/18 07:22:43;;;;;;;17.00;5.63;;;;;;;;;;6223681;23;20023;-86
2023/07/18 07:25:14;;;;;;;21.95;5.28;;;;;;;;;;6199701;23;20069;-87
2023/07/18 07:28:04;;;;;;;18.42;4.20;;;;;;;;;;6197499;23;20023;-87
2023/07/18 07:30:33;;;;;;;15.23;4.63;;;;;;;;;;6248970;23;20008;-87
2023/07/18 07:33:00;;;;;;;16.73;4.40;;;;;;;;;;6225273;23;20008;-87
2023/07/18 07:35:28;;;;;;;17.27;4.30;;;;;;;;;;6223855;23;20015;-87
2023/07/18 07:37:54;;;;;;;11.65;4.20;;;;;;;;;;6200979;23;20046;-86
2023/07/18 07:40:21;;;;;;;15.23;3.50;;;;;;;;;;6221860;23;20036;-86
2023/07/18 07:42:58;;;;;;;16.13;4.30;;;;;;;;;;6224989;23;20402;-87
2023/07/18 07:45:23;;;;;;;;;;;;;;;;;;6199382;23;20023;-87
2023/07/18 07:47:51;;;;;;;14.43;4.00;;;;;;;;;;6228048;23;19908;-87
2023/07/18 07:50:17;;;;;;;19.90;5.60;;;;;;;;;;6200825;23;20008;-87
2023/07/18 07:52:45;;;;;;;15.55;4.93;;;;;;;;;;6228590;23;20062;-87
2023/07/18 07:55:12;;;;;;;22.58;6.20;;;;;;;;;;6201146;23;20068;-87
2023/07/18 07:57:39;;;;;;;17.92;4.97;;;;;;;;;;6199238;23;20008;-87
2023/07/18 08:00:14;;;;;;;10.85;3.88;;;;;;;;;;6246074;23;20005;-87
2023/07/18 08:02:40;;;;;;;17.38;4.68;;;;;;;;;;6222087;23;20012;-87
2023/07/18 08:05:07;;;;;;;16.45;4.43;;;;;;;;;;6175007;22;20083;-87
2023/07/18 08:07:41;;;;;;;14.75;4.43;;;;;;;;;;6165625;23;20020;-86
2023/07/18 08:10:09;;;;;;;11.57;3.53;;;;;;;;;;6163504;23;20000;-87
2023/07/18 08:12:35;;;;;;;24.77;4.25;;;;;;;;;;6165074;23;20009;-87
2023/07/18 08:15:01;;;;;;;20.02;3.80;;;;;;;;;;6167888;23;20525;-86
2023/07/18 08:17:54;;;;;;;7.55;2.75;;;;;;;;;;6189165;23;20019;-87
2023/07/18 08:20:33;;;;;;;10.60;2.92;;;;;;;;;;6182178;23;20026;-87
2023/07/18 08:22:59;;;;;;;11.25;3.42;;;;;;;;;;6190902;23;20020;-86
2023/07/18 08:25:29;;;;;;;18.02;4.43;;;;;;;;;;6193891;23;20062;-86
2023/07/18 08:27:56;;;;;;;16.17;3.30;;;;;;;;;;6168050;23;20072;-86
2023/07/18 08:30:28;;;;;;;8.23;2.67;;;;;;;;;;6189803;23;20023;-87
2023/07/18 08:32:54;;;;;;;13.30;2.10;;;;;;;;;;6192101;23;20362;-87
2023/07/18 08:35:29;;;;;;;4.35;1.77;;;;;;;;;;6191897;23;20015;-87
2023/07/18 08:38:02;;;;;;;4.65;1.92;;;;;;;;;;6170758;23;20013;-87
2023/07/18 08:40:29;;;;;;;7.00;1.98;;;;;;;;;;6170841;23;20012;-88
2023/07/18 08:42:56;;;;;;;11.35;2.53;;;;;;;;;;6193717;23;20012;-86
2023/07/18 08:45:26;;;;;;;9.52;2.35;;;;;;;;;;6168587;23;20013;-86
2023/07/18 08:47:56;;;;;;;16.40;2.40;;;;;;;;;;6193779;23;20019;-87
2023/07/18 08:50:22;;;;;;;9.15;2.45;;;;;;;;;;6166441;23;20013;-86
2023/07/18 08:52:48;;;;;;;12.57;2.33;;;;;;;;;;6196298;23;20059;-87
2023/07/18 08:55:17;;;;;;;4.85;2.00;;;;;;;;;;6172602;23;20082;-86
2023/07/18 08:57:50;;;;;;;9.65;2.25;;;;;;;;;;6203832;23;20009;-86
2023/07/18 09:00:25;;;;;;;9.95;2.28;;;;;;;;;;6206369;23;20150;-87
2023/07/18 09:02:51;;;;;;;7.80;2.65;;;;;;;;;;6194018;23;20004;-88
2023/07/18 09:06:21;;;;;;;13.43;2.50;;;;;;;;;;6176998;22;20052;-87
2023/07/18 09:08:23;;;;;;;11.93;2.78;;;;;;;;;;6212246;23;20021;-87
2023/07/18 09:11:04;;;;;;;14.10;2.35;;;;;;;;;;6181701;23;20008;-87
2023/07/18 09:13:38;;;;;;;10.23;2.35;;;;;;;;;;6205345;23;20009;-87
2023/07/18 09:16:17;;;;;;;9.07;2.47;;;;;;;;;;6176576;23;20015;-88
2023/07/18 09:19:04;;;;;;;9.02;2.90;;;;;;;;;;6204353;23;20013;-88
2023/07/18 09:21:32;;;;;;;9.45;2.13;;;;;;;;;;6205643;23;20017;-88
2023/07/18 09:23:58;;;;;;;8.68;2.03;;;;;;;;;;6200242;23;20020;-87
2023/07/18 09:26:32;;;;;;;8.98;1.63;;;;;;;;;;6174336;23;20016;-86
2023/07/18 09:28:59;;;;;;;7.78;2.42;;;;;;;;;;6230230;23;20020;-87
2023/07/18 09:31:36;;;;;;;8.48;3.05;;;;;;;;;;6208301;23;20411;-88
2023/07/18 09:34:11;;;;;;;4.72;1.50;;;;;;;;;;6202256;23;20008;-87
2023/07/18 09:36:50;;;;;;;;;;;;;;;;;;;;;
2023/07/18 09:39:17;;;;;;;10.65;2.03;;;;;;;;;;6199877;23;20031;-88
2023/07/18 09:41:43;;;;;;;4.63;1.80;;;;;;;;;;6168167;23;20023;-88
2023/07/18 09:44:10;;;;;;;10.98;1.98;;;;;;;;;;6193797;23;20005;-88
2023/07/18 09:46:37;;;;;;;7.10;1.80;;;;;;;;;;6167498;23;20390;-88
2023/07/18 09:49:04;;;;;;;6.32;2.03;;;;;;;;;;6167153;23;20013;-87
2023/07/18 09:51:38;;;;;;;6.60;2.33;;;;;;;;;;6196343;23;20005;-88
2023/07/18 09:54:07;;;;;;;6.63;2.58;;;;;;;;;;6170473;23;20064;-87
2023/07/18 09:56:41;;;;;;;11.63;2.03;;;;;;;;;;6168497;23;20009;-88
2023/07/18 09:59:10;;;;;;;4.45;1.67;;;;;;;;;;6192516;23;20342;-88
2023/07/18 10:01:38;;;;;;;9.20;2.08;;;;;;;;;;6188953;23;20157;-88
2023/07/18 10:04:11;;;;;;;11.13;2.10;;;;;;;;;;6168759;22;20026;-88
2023/07/18 10:06:45;;;;;;;7.97;2.05;;;;;;;;;;6241046;23;20039;-88
2023/07/18 10:09:12;;;;;;;4.57;1.97;;;;;;;;;;6191609;23;20016;-88
2023/07/18 10:12:00;;;;;;;9.00;2.05;;;;;;;;;;6190379;23;20008;-87
2023/07/18 10:14:59;;;;;;;10.35;2.20;;;;;;;;;;6216141;23;20375;-87
2023/07/18 10:17:33;;;;;;;5.07;1.83;;;;;;;;;;6189974;23;20034;-87
2023/07/18 10:19:59;;;;;;;7.40;1.83;;;;;;;;;;6216968;23;20103;-88
2023/07/18 10:22:31;;;;;;;7.65;1.92;;;;;;;;;;6243215;23;20011;-88
2023/07/18 10:25:08;;;;;;;11.25;2.20;;;;;;;;;;6193503;23;20066;-88
2023/07/18 10:27:39;;;;;;;9.18;3.17;;;;;;;;;;6193831;23;20255;-87
2023/07/18 10:30:06;;;;;;;6.95;2.10;;;;;;;;;;6218731;23;20004;-87
2023/07/18 10:32:33;;;;;;;10.68;2.22;;;;;;;;;;6193656;23;20038;-87
2023/07/18 10:35:07;;;;;;;7.90;2.30;;;;;;;;;;6226303;23;20015;-88
2023/07/18 10:37:40;;;;;;;8.93;2.33;;;;;;;;;;6198613;23;20012;-87
2023/07/18 10:40:12;;;;;;;5.80;2.22;;;;;;;;;;6259039;23;20019;-87
2023/07/18 10:42:45;;;;;;;7.07;2.20;;;;;;;;;;6185121;23;20012;-88
2023/07/18 10:45:18;;;;;;;14.60;2.50;;;;;;;;;;6236701;23;20008;-88
2023/07/18 10:47:54;;;;;;;7.40;2.58;;;;;;;;;;6233737;23;20019;-87
2023/07/18 10:50:23;;;;;;;10.02;2.45;;;;;;;;;;6206999;23;20012;-88
2023/07/18 10:52:49;;;;;;;7.80;2.63;;;;;;;;;;6222111;23;20011;-87
2023/07/18 10:55:16;;;;;;;5.43;2.40;;;;;;;;;;6247311;23;20000;-87
2023/07/18 10:57:47;;;;;;;9.43;2.60;;;;;;;;;;6234647;23;20060;-88
2023/07/18 11:00:16;;;;;;;12.35;3.83;;;;;;;;;;6220459;23;20052;-87
2023/07/18 11:02:47;;;;;;;9.45;2.60;;;;;;;;;;6198295;23;20073;-85
2023/07/18 11:05:14;;;;;;;10.50;2.70;;;;;;;;;;6185124;22;20123;-86
2023/07/18 11:07:41;;;;;;;7.97;3.45;;;;;;;;;;6192694;23;20012;-86
2023/07/18 11:10:13;;;;;;;5.68;2.40;;;;;;;;;;6172795;23;20009;-87
2023/07/18 11:12:40;;;;;;;6.07;2.28;;;;;;;;;;6170864;23;20005;-87
2023/07/18 11:15:07;;;;;;;9.38;1.83;;;;;;;;;;6196467;23;20004;-86
2023/07/18 11:17:38;;;;;;;13.02;2.60;;;;;;;;;;6195232;23;20485;-86
2023/07/18 11:20:05;;;;;;;10.15;2.75;;;;;;;;;;6163755;23;20024;-86
2023/07/18 11:22:31;;;;;;;9.27;2.47;;;;;;;;;;6190836;23;20298;-85
2023/07/18 11:24:58;;;;;;;7.45;2.00;;;;;;;;;;6215031;23;20001;-86
2023/07/18 11:27:25;;;;;;;9.63;2.13;;;;;;;;;;6187212;23;20012;-87
2023/07/18 11:30:01;;;;;;;6.13;2.38;;;;;;;;;;6188192;23;20005;-86
2023/07/18 11:32:31;;;;;;;6.57;2.10;;;;;;;;;;6166705;23;20043;-86
2023/07/18 11:34:58;;;;;;;8.23;2.38;;;;;;;;;;6190682;23;20031;-86
2023/07/18 11:37:25;;;;;;;10.40;2.33;;;;;;;;;;6186800;23;20231;-87
2023/07/18 11:39:53;;;;;;;6.47;2.40;;;;;;;;;;6164013;23;20009;-87
2023/07/18 11:42:23;;;;;;;10.45;2.30;;;;;;;;;;6183541;23;20012;-87
2023/07/18 11:44:52;;;;;;;3.42;1.50;;;;;;;;;;6164782;23;20050;-87
2023/07/18 11:47:22;;;;;;;4.68;1.52;;;;;;;;;;6162654;23;20016;-88
2023/07/18 11:50:09;;;;;;;4.15;2.15;;;;;;;;;;6167279;23;20031;-88
2023/07/18 11:52:35;;;;;;;7.22;2.25;;;;;;;;;;6190313;23;20012;-87
2023/07/18 11:55:02;;;;;;;6.93;1.73;;;;;;;;;;6162969;23;20013;-88
2023/07/18 11:57:29;;;;;;;7.30;2.25;;;;;;;;;;6187860;23;20099;-88
2023/07/18 11:59:55;;;;;;;8.05;1.80;;;;;;;;;;6165385;23;20087;-88
2023/07/18 12:02:21;;;;;;;6.18;1.90;;;;;;;;;;6186938;23;20031;-88
2023/07/18 12:04:47;;;;;;;7.68;2.00;;;;;;;;;;6166925;22;20298;-87
2023/07/18 12:07:14;;;;;;;4.28;1.67;;;;;;;;;;6161885;23;20020;-87
2023/07/18 12:09:40;;;;;;;10.38;1.85;;;;;;;;;;6162432;23;20036;-87
2023/07/18 12:12:07;;;;;;;5.60;1.83;;;;;;;;;;6186803;23;20450;-88
2023/07/18 12:14:35;;;;;;;6.47;2.20;;;;;;;;;;6188875;23;20026;-88
2023/07/18 12:17:01;;;;;;;9.05;2.40;;;;;;;;;;6158486;23;20315;-88
2023/07/18 12:19:27;;;;;;;3.40;1.50;;;;;;;;;;6166698;23;20403;-87
2023/07/18 12:21:56;;;;;;;11.23;4.15;;;;;;;;;;6184343;23;20429;-87
2023/07/18 12:24:22;;;;;;;8.88;1.80;;;;;;;;;;6188908;23;20008;-87
2023/07/18 12:26:48;;;;;;;9.13;1.88;;;;;;;;;;6160879;23;20477;-88
2023/07/18 12:29:15;;;;;;;6.68;2.10;;;;;;;;;;6159462;23;20013;-88
2023/07/18 12:31:51;;;;;;;9.70;1.90;;;;;;;;;;6186331;23;20080;-88
2023/07/18 12:34:27;;;;;;;8.63;2.10;;;;;;;;;;6163117;23;20086;-87
2023/07/18 12:36:54;;;;;;;6.40;1.70;;;;;;;;;;6165681;23;20013;-88
2023/07/18 12:39:24;;;;;;;4.53;1.65;;;;;;;;;;6164401;23;20096;-87
2023/07/18 12:41:53;;;;;;;5.60;2.13;;;;;;;;;;6163182;23;20047;-88
2023/07/18 12:44:20;;;;;;;4.78;1.92;;;;;;;;;;6196481;23;20005;-87
2023/07/18 12:46:52;;;;;;;12.63;2.05;;;;;;;;;;6167749;23;20008;-87
2023/07/18 12:49:19;;;;;;;5.32;1.90;;;;;;;;;;6188553;23;20016;-88
2023/07/18 12:51:48;;;;;;;5.57;1.90;;;;;;;;;;6164626;23;20005;-88
2023/07/18 12:54:14;;;;;;;3.28;1.63;;;;;;;;;;6166291;23;20091;-88
2023/07/18 12:56:40;;;;;;;4.07;1.80;;;;;;;;;;6164181;23;20316;-88
2023/07/18 12:59:10;;;;;;;4.20;1.92;;;;;;;;;;6167432;23;20017;-87
2023/07/18 13:01:37;;;;;;;6.60;1.30;;;;;;;;;;6170366;23;20525;-88
2023/07/18 13:04:30;;;;;;;3.63;1.30;;;;;;;;;;6193190;23;20040;-88
2023/07/18 13:06:56;;;;;;;3.15;1.52;;;;;;;;;;6182319;23;20027;-88
2023/07/18 13:09:22;;;;;;;6.60;1.70;;;;;;;;;;6164926;23;20465;-87
2023/07/18 13:11:52;;;;;;;3.50;1.27;;;;;;;;;;6220101;23;19997;-88
2023/07/18 13:14:20;;;;;;;3.78;1.50;;;;;;;;;;6188769;23;20067;-88
2023/07/18 13:16:46;;;;;;;5.13;1.70;;;;;;;;;;6185226;23;20004;-87
2023/07/18 13:19:13;;;;;;;4.57;1.83;;;;;;;;;;6218185;23;20005;-88
2023/07/18 13:21:39;;;;;;;4.22;1.60;;;;;;;;;;6165796;23;20031;-87
2023/07/18 13:24:08;;;;;;;3.83;1.38;;;;;;;;;;6191530;23;20013;-87
2023/07/18 13:26:34;;;;;;;4.97;1.67;;;;;;;;;;6167277;23;20018;-88
2023/07/18 13:29:08;;;;;;;5.97;2.00;;;;;;;;;;6217254;23;20027;-88
2023/07/18 13:31:45;;;;;;;6.13;2.00;;;;;;;;;;6218166;23;20024;-88
2023/07/18 13:34:12;;;;;;;10.07;1.98;;;;;;;;;;6189524;23;20019;-88
2023/07/18 13:36:44;;;;;;;4.10;2.40;;;;;;;;;;6189432;23;20009;-88
2023/07/18 13:39:10;;;;;;;5.20;1.63;;;;;;;;;;6166945;23;20043;-88
2023/07/18 13:41:37;;;;;;;10.27;1.95;;;;;;;;;;6166045;23;20013;-87
2023/07/18 13:44:03;;;;;;;2.22;1.45;;;;;;;;;;6185762;23;20008;-88
2023/07/18 13:46:29;;;;;;;4.43;2.00;;;;;;;;;;6167909;23;20012;-87
2023/07/18 13:48:59;;;;;;;3.47;1.75;;;;;;;;;;6167219;23;20009;-88
2023/07/18 13:51:25;;;;;;;6.88;1.73;;;;;;;;;;6192787;23;20194;-88
2023/07/18 13:53:52;;;;;;;12.75;1.98;;;;;;;;;;6164942;23;20009;-88
2023/07/18 13:56:19;;;;;;;3.28;1.90;;;;;;;;;;6190357;23;20032;-88
2023/07/18 13:58:45;;;;;;;6.60;1.67;;;;;;;;;;6189747;23;20004;-88
2023/07/18 14:01:14;;;;;;;12.18;3.13;;;;;;;;;;6192395;23;20072;-88
2023/07/18 14:03:40;;;;;;;5.97;1.65;;;;;;;;;;6216607;23;20047;-88
2023/07/18 14:06:13;;;;;;;7.40;1.60;;;;;;;;;;6176147;22;20107;-88
2023/07/18 14:08:39;;;;;;;3.50;1.40;;;;;;;;;;6192624;23;20035;-87
2023/07/18 14:11:09;;;;;;;4.20;1.50;;;;;;;;;;6167615;23;20687;-88
2023/07/18 14:13:42;;;;;;;6.72;1.50;;;;;;;;;;6168153;23;20009;-88
2023/07/18 14:16:22;;;;;;;3.72;1.55;;;;;;;;;;6169994;23;20385;-87
2023/07/18 14:18:48;;;;;;;3.10;1.30;;;;;;;;;;6189502;23;20423;-88
2023/07/18 14:21:21;;;;;;;6.95;1.48;;;;;;;;;;6165637;23;20047;-88
2023/07/18 14:23:56;;;;;;;2.65;1.23;;;;;;;;;;6167294;23;20019;-88
2023/07/18 14:26:22;;;;;;;;;;;;;;;;;;6168406;23;20425;-86
2023/07/18 14:28:48;;;;;;;4.15;1.48;;;;;;;;;;6193915;23;19899;-88
2023/07/18 14:31:14;;;;;;;7.00;1.65;;;;;;;;;;6192133;23;20009;-88
2023/07/18 14:33:41;;;;;;;5.57;1.42;;;;;;;;;;6196735;23;20012;-88
2023/07/18 14:36:07;;;;;;;3.83;1.52;;;;;;;;;;6171571;23;20013;-88
2023/07/18 14:38:35;;;;;;;3.63;1.85;;;;;;;;;;6196076;23;20000;-88
2023/07/18 14:41:02;;;;;;;7.88;1.92;;;;;;;;;;6171284;23;20417;-88
2023/07/18 14:46:28;;;;;;;5.93;1.80;;;;;;;;;;6221010;23;20043;-88
2023/07/18 14:48:55;;;;;;;3.78;1.80;;;;;;;;;;6193606;23;20031;-88
2023/07/18 14:51:21;;;;;;;4.03;1.77;;;;;;;;;;6167772;23;20047;-87
2023/07/18 14:53:48;;;;;;;4.97;2.00;;;;;;;;;;6194338;23;20249;-88
2023/07/18 14:56:15;;;;;;;2.92;1.55;;;;;;;;;;6168435;23;20044;-89
2023/07/18 14:58:48;;;;;;;4.88;2.03;;;;;;;;;;6169943;23;20043;-88